sensor_id;sensor_type;location;lat;lon;timestamp;P1;durP1;ratioP1;P2;durP2;ratioP2
32501;SDS011;18952;52.516;13.460;2023-03-01T00:00:23;30.77;;;16.83;;
32501;SDS011;18952;52.516;13.460;2023-03-01T00:02:50;29.67;;;17.38;;
32501;SDS011;18952;52.516;13.460;2023-03-01T00:05:17;28.58;;;17.33;;
32501;SDS011;18952;52.516;13.460;2023-03-01T00:07:44;28.13;;;16.80;;
32501;SDS011;18952;52.516;13.460;2023-03-01T00:10:11;25.48;;;16.52;;
32501;SDS011;18952;52.516;13.460;2023-03-01T00:12:37;28.42;;;18.05;;
32501;SDS011;18952;52.516;13.460;2023-03-01T00:15:04;28.42;;;17.15;;
32501;SDS011;18952;52.516;13.460;2023-03-01T00:17:31;26.77;;;16.73;;
32501;SDS011;18952;52.516;13.460;2023-03-01T00:19:58;23.85;;;15.65;;
32501;SDS011;18952;52.516;13.460;2023-03-01T00:22:26;24.08;;;15.27;;
32501;SDS011;18952;52.516;13.460;2023-03-01T00:24:53;27.20;;;16.52;;
32501;SDS011;18952;52.516;13.460;2023-03-01T00:27:20;26.25;;;16.33;;
32501;SDS011;18952;52.516;13.460;2023-03-01T00:29:46;26.95;;;16.75;;
32501;SDS011;18952;52.516;13.460;2023-03-01T00:32:13;27.77;;;16.20;;
32501;SDS011;18952;52.516;13.460;2023-03-01T00:34:40;29.17;;;17.80;;
32501;SDS011;18952;52.516;13.460;2023-03-01T00:37:07;27.50;;;17.38;;
32501;SDS011;18952;52.516;13.460;2023-03-01T00:39:34;27.13;;;17.15;;
32501;SDS011;18952;52.516;13.460;2023-03-01T00:42:00;23.60;;;16.15;;
32501;SDS011;18952;52.516;13.460;2023-03-01T00:44:27;30.75;;;16.63;;
32501;SDS011;18952;52.516;13.460;2023-03-01T00:46:54;23.80;;;16.00;;
32501;SDS011;18952;52.516;13.460;2023-03-01T00:49:21;23.88;;;15.13;;
32501;SDS011;18952;52.516;13.460;2023-03-01T00:51:47;26.30;;;15.38;;
32501;SDS011;18952;52.516;13.460;2023-03-01T00:54:14;25.15;;;15.57;;
32501;SDS011;18952;52.516;13.460;2023-03-01T00:56:41;22.20;;;14.55;;
32501;SDS011;18952;52.516;13.460;2023-03-01T00:59:10;21.83;;;13.80;;
32501;SDS011;18952;52.516;13.460;2023-03-01T01:01:37;19.05;;;13.15;;
32501;SDS011;18952;52.516;13.460;2023-03-01T01:04:05;23.10;;;13.70;;
32501;SDS011;18952;52.516;13.460;2023-03-01T01:06:36;20.90;;;13.40;;
32501;SDS011;18952;52.516;13.460;2023-03-01T01:09:09;20.92;;;13.80;;
32501;SDS011;18952;52.516;13.460;2023-03-01T01:11:38;18.77;;;12.98;;
32501;SDS011;18952;52.516;13.460;2023-03-01T01:14:05;23.45;;;13.35;;
32501;SDS011;18952;52.516;13.460;2023-03-01T01:16:31;22.80;;;13.73;;
32501;SDS011;18952;52.516;13.460;2023-03-01T01:18:59;29.10;;;17.17;;
32501;SDS011;18952;52.516;13.460;2023-03-01T01:21:26;28.60;;;16.35;;
32501;SDS011;18952;52.516;13.460;2023-03-01T01:23:53;30.25;;;17.85;;
32501;SDS011;18952;52.516;13.460;2023-03-01T01:26:22;34.38;;;18.75;;
32501;SDS011;18952;52.516;13.460;2023-03-01T01:28:51;29.95;;;17.90;;
32501;SDS011;18952;52.516;13.460;2023-03-01T01:31:19;36.75;;;20.80;;
32501;SDS011;18952;52.516;13.460;2023-03-01T01:33:46;39.72;;;20.60;;
32501;SDS011;18952;52.516;13.460;2023-03-01T01:36:13;33.03;;;18.95;;
32501;SDS011;18952;52.516;13.460;2023-03-01T01:38:40;30.33;;;17.13;;
32501;SDS011;18952;52.516;13.460;2023-03-01T01:41:06;28.55;;;17.92;;
32501;SDS011;18952;52.516;13.460;2023-03-01T01:43:36;27.38;;;16.98;;
32501;SDS011;18952;52.516;13.460;2023-03-01T01:48:48;32.25;;;18.38;;
32501;SDS011;18952;52.516;13.460;2023-03-01T01:51:25;29.83;;;17.42;;
32501;SDS011;18952;52.516;13.460;2023-03-01T01:53:57;28.08;;;17.13;;
32501;SDS011;18952;52.516;13.460;2023-03-01T01:56:26;30.50;;;17.25;;
32501;SDS011;18952;52.516;13.460;2023-03-01T01:58:55;28.33;;;16.75;;
32501;SDS011;18952;52.516;13.460;2023-03-01T02:01:23;32.97;;;17.52;;
32501;SDS011;18952;52.516;13.460;2023-03-01T02:03:49;26.85;;;17.35;;
32501;SDS011;18952;52.516;13.460;2023-03-01T02:08:48;27.65;;;15.82;;
32501;SDS011;18952;52.516;13.460;2023-03-01T02:11:19;26.25;;;17.25;;
32501;SDS011;18952;52.516;13.460;2023-03-01T02:13:47;28.00;;;16.60;;
32501;SDS011;18952;52.516;13.460;2023-03-01T02:16:14;28.70;;;16.98;;
32501;SDS011;18952;52.516;13.460;2023-03-01T02:18:42;31.38;;;16.75;;
32501;SDS011;18952;52.516;13.460;2023-03-01T02:23:46;30.25;;;17.05;;
32501;SDS011;18952;52.516;13.460;2023-03-01T02:29:06;25.85;;;17.13;;
32501;SDS011;18952;52.516;13.460;2023-03-01T02:31:33;26.77;;;17.13;;
32501;SDS011;18952;52.516;13.460;2023-03-01T02:34:00;25.83;;;16.55;;
32501;SDS011;18952;52.516;13.460;2023-03-01T02:36:29;28.58;;;16.75;;
32501;SDS011;18952;52.516;13.460;2023-03-01T02:39:00;23.90;;;16.35;;
32501;SDS011;18952;52.516;13.460;2023-03-01T02:41:30;28.75;;;17.48;;
32501;SDS011;18952;52.516;13.460;2023-03-01T02:44:01;24.27;;;15.52;;
32501;SDS011;18952;52.516;13.460;2023-03-01T02:46:29;26.85;;;16.77;;
32501;SDS011;18952;52.516;13.460;2023-03-01T02:48:57;24.75;;;17.00;;
32501;SDS011;18952;52.516;13.460;2023-03-01T02:51:27;29.33;;;16.67;;
32501;SDS011;18952;52.516;13.460;2023-03-01T02:56:36;28.42;;;16.95;;
32501;SDS011;18952;52.516;13.460;2023-03-01T02:59:03;29.35;;;16.70;;
32501;SDS011;18952;52.516;13.460;2023-03-01T03:01:30;25.48;;;14.93;;
32501;SDS011;18952;52.516;13.460;2023-03-01T03:04:02;30.77;;;16.30;;
32501;SDS011;18952;52.516;13.460;2023-03-01T03:06:40;25.17;;;15.57;;
32501;SDS011;18952;52.516;13.460;2023-03-01T03:09:07;26.83;;;16.45;;
32501;SDS011;18952;52.516;13.460;2023-03-01T03:11:33;28.20;;;17.17;;
32501;SDS011;18952;52.516;13.460;2023-03-01T03:14:00;28.73;;;15.35;;
32501;SDS011;18952;52.516;13.460;2023-03-01T03:16:27;25.20;;;15.52;;
32501;SDS011;18952;52.516;13.460;2023-03-01T03:18:55;25.77;;;15.75;;
32501;SDS011;18952;52.516;13.460;2023-03-01T03:21:24;27.15;;;15.80;;
32501;SDS011;18952;52.516;13.460;2023-03-01T03:23:51;22.85;;;15.13;;
32501;SDS011;18952;52.516;13.460;2023-03-01T03:26:17;29.15;;;16.25;;
32501;SDS011;18952;52.516;13.460;2023-03-01T03:28:44;28.00;;;17.55;;
32501;SDS011;18952;52.516;13.460;2023-03-01T03:31:11;27.00;;;17.05;;
32501;SDS011;18952;52.516;13.460;2023-03-01T03:33:38;29.35;;;16.80;;
32501;SDS011;18952;52.516;13.460;2023-03-01T03:36:05;29.40;;;17.30;;
32501;SDS011;18952;52.516;13.460;2023-03-01T03:38:32;27.67;;;17.38;;
32501;SDS011;18952;52.516;13.460;2023-03-01T03:41:01;36.65;;;18.10;;
32501;SDS011;18952;52.516;13.460;2023-03-01T03:43:31;33.05;;;17.95;;
32501;SDS011;18952;52.516;13.460;2023-03-01T03:45:59;28.63;;;17.80;;
32501;SDS011;18952;52.516;13.460;2023-03-01T03:48:27;27.52;;;17.33;;
32501;SDS011;18952;52.516;13.460;2023-03-01T03:50:54;21.17;;;15.50;;
32501;SDS011;18952;52.516;13.460;2023-03-01T03:53:22;28.17;;;17.27;;
32501;SDS011;18952;52.516;13.460;2023-03-01T03:55:51;26.60;;;16.95;;
32501;SDS011;18952;52.516;13.460;2023-03-01T03:58:19;32.42;;;18.73;;
32501;SDS011;18952;52.516;13.460;2023-03-01T04:00:49;39.35;;;20.45;;
32501;SDS011;18952;52.516;13.460;2023-03-01T04:03:18;29.98;;;20.77;;
32501;SDS011;18952;52.516;13.460;2023-03-01T04:05:45;30.83;;;21.17;;
32501;SDS011;18952;52.516;13.460;2023-03-01T04:08:13;37.67;;;22.67;;
32501;SDS011;18952;52.516;13.460;2023-03-01T04:10:41;39.97;;;21.83;;
32501;SDS011;18952;52.516;13.460;2023-03-01T04:13:11;33.38;;;22.30;;
32501;SDS011;18952;52.516;13.460;2023-03-01T04:15:40;37.13;;;22.55;;
32501;SDS011;18952;52.516;13.460;2023-03-01T04:18:08;40.25;;;23.52;;
32501;SDS011;18952;52.516;13.460;2023-03-01T04:20:38;37.20;;;22.98;;
32501;SDS011;18952;52.516;13.460;2023-03-01T04:23:05;42.58;;;24.40;;
32501;SDS011;18952;52.516;13.460;2023-03-01T04:25:34;34.63;;;24.10;;
32501;SDS011;18952;52.516;13.460;2023-03-01T04:28:01;38.03;;;23.85;;
32501;SDS011;18952;52.516;13.460;2023-03-01T04:30:27;38.53;;;25.42;;
32501;SDS011;18952;52.516;13.460;2023-03-01T04:32:54;37.60;;;23.75;;
32501;SDS011;18952;52.516;13.460;2023-03-01T04:35:21;36.85;;;24.88;;
32501;SDS011;18952;52.516;13.460;2023-03-01T04:37:51;37.38;;;25.30;;
32501;SDS011;18952;52.516;13.460;2023-03-01T04:40:17;41.08;;;24.30;;
32501;SDS011;18952;52.516;13.460;2023-03-01T04:42:44;33.65;;;23.63;;
32501;SDS011;18952;52.516;13.460;2023-03-01T04:45:11;39.97;;;23.85;;
32501;SDS011;18952;52.516;13.460;2023-03-01T04:47:39;33.92;;;24.42;;
32501;SDS011;18952;52.516;13.460;2023-03-01T04:50:06;33.75;;;23.20;;
32501;SDS011;18952;52.516;13.460;2023-03-01T04:52:34;31.52;;;22.40;;
32501;SDS011;18952;52.516;13.460;2023-03-01T04:55:01;37.53;;;23.45;;
32501;SDS011;18952;52.516;13.460;2023-03-01T04:57:28;35.75;;;24.00;;
32501;SDS011;18952;52.516;13.460;2023-03-01T04:59:56;32.40;;;22.83;;
32501;SDS011;18952;52.516;13.460;2023-03-01T05:02:22;39.20;;;24.63;;
32501;SDS011;18952;52.516;13.460;2023-03-01T05:04:49;41.25;;;25.10;;
32501;SDS011;18952;52.516;13.460;2023-03-01T05:07:17;42.72;;;25.08;;
32501;SDS011;18952;52.516;13.460;2023-03-01T05:09:43;36.17;;;25.35;;
32501;SDS011;18952;52.516;13.460;2023-03-01T05:12:14;41.25;;;24.67;;
32501;SDS011;18952;52.516;13.460;2023-03-01T05:14:41;38.05;;;24.88;;
32501;SDS011;18952;52.516;13.460;2023-03-01T05:17:08;34.42;;;23.33;;
32501;SDS011;18952;52.516;13.460;2023-03-01T05:19:35;38.15;;;23.75;;
32501;SDS011;18952;52.516;13.460;2023-03-01T05:22:01;37.95;;;23.20;;
32501;SDS011;18952;52.516;13.460;2023-03-01T05:24:28;37.40;;;23.40;;
32501;SDS011;18952;52.516;13.460;2023-03-01T05:26:56;36.65;;;24.35;;
32501;SDS011;18952;52.516;13.460;2023-03-01T05:29:24;40.38;;;24.60;;
32501;SDS011;18952;52.516;13.460;2023-03-01T05:34:41;32.92;;;23.35;;
32501;SDS011;18952;52.516;13.460;2023-03-01T05:37:08;28.45;;;17.75;;
32501;SDS011;18952;52.516;13.460;2023-03-01T05:39:35;38.00;;;24.30;;
32501;SDS011;18952;52.516;13.460;2023-03-01T05:42:02;36.67;;;24.15;;
32501;SDS011;18952;52.516;13.460;2023-03-01T05:44:31;38.55;;;24.58;;
32501;SDS011;18952;52.516;13.460;2023-03-01T05:46:57;34.40;;;25.58;;
32501;SDS011;18952;52.516;13.460;2023-03-01T05:49:24;38.30;;;24.27;;
32501;SDS011;18952;52.516;13.460;2023-03-01T05:51:52;40.55;;;25.55;;
32501;SDS011;18952;52.516;13.460;2023-03-01T05:54:19;40.53;;;27.20;;
32501;SDS011;18952;52.516;13.460;2023-03-01T05:56:47;42.75;;;24.98;;
32501;SDS011;18952;52.516;13.460;2023-03-01T05:59:14;37.85;;;24.25;;
32501;SDS011;18952;52.516;13.460;2023-03-01T06:01:43;42.70;;;24.35;;
32501;SDS011;18952;52.516;13.460;2023-03-01T06:04:10;44.17;;;26.50;;
32501;SDS011;18952;52.516;13.460;2023-03-01T06:06:37;46.67;;;25.80;;
32501;SDS011;18952;52.516;13.460;2023-03-01T06:09:04;36.47;;;25.27;;
32501;SDS011;18952;52.516;13.460;2023-03-01T06:11:33;37.45;;;25.20;;
32501;SDS011;18952;52.516;13.460;2023-03-01T06:14:00;46.65;;;26.13;;
32501;SDS011;18952;52.516;13.460;2023-03-01T06:16:27;42.20;;;26.02;;
32501;SDS011;18952;52.516;13.460;2023-03-01T06:18:54;45.88;;;26.95;;
32501;SDS011;18952;52.516;13.460;2023-03-01T06:21:21;40.40;;;26.67;;
32501;SDS011;18952;52.516;13.460;2023-03-01T06:23:48;39.88;;;28.17;;
32501;SDS011;18952;52.516;13.460;2023-03-01T06:26:15;43.58;;;27.65;;
32501;SDS011;18952;52.516;13.460;2023-03-01T06:28:41;46.70;;;28.58;;
32501;SDS011;18952;52.516;13.460;2023-03-01T06:31:08;42.17;;;28.70;;
32501;SDS011;18952;52.516;13.460;2023-03-01T06:33:35;49.60;;;29.00;;
32501;SDS011;18952;52.516;13.460;2023-03-01T06:36:02;51.05;;;30.05;;
32501;SDS011;18952;52.516;13.460;2023-03-01T06:38:29;43.85;;;28.88;;
32501;SDS011;18952;52.516;13.460;2023-03-01T06:40:56;47.95;;;30.58;;
32501;SDS011;18952;52.516;13.460;2023-03-01T06:43:23;52.38;;;30.45;;
32501;SDS011;18952;52.516;13.460;2023-03-01T06:45:50;50.50;;;30.05;;
32501;SDS011;18952;52.516;13.460;2023-03-01T06:48:17;49.17;;;30.67;;
32501;SDS011;18952;52.516;13.460;2023-03-01T06:50:44;49.95;;;29.70;;
32501;SDS011;18952;52.516;13.460;2023-03-01T06:53:11;46.75;;;30.30;;
32501;SDS011;18952;52.516;13.460;2023-03-01T06:55:37;45.65;;;28.95;;
32501;SDS011;18952;52.516;13.460;2023-03-01T06:58:05;44.70;;;29.52;;
32501;SDS011;18952;52.516;13.460;2023-03-01T07:00:32;42.70;;;29.25;;
32501;SDS011;18952;52.516;13.460;2023-03-01T07:02:59;41.33;;;29.55;;
32501;SDS011;18952;52.516;13.460;2023-03-01T07:05:28;48.17;;;30.95;;
32501;SDS011;18952;52.516;13.460;2023-03-01T07:07:56;46.78;;;29.73;;
32501;SDS011;18952;52.516;13.460;2023-03-01T07:10:23;49.85;;;30.00;;
32501;SDS011;18952;52.516;13.460;2023-03-01T07:12:53;48.25;;;29.83;;
32501;SDS011;18952;52.516;13.460;2023-03-01T07:15:21;48.67;;;29.98;;
32501;SDS011;18952;52.516;13.460;2023-03-01T07:17:48;48.00;;;30.08;;
32501;SDS011;18952;52.516;13.460;2023-03-01T07:20:15;40.35;;;29.30;;
32501;SDS011;18952;52.516;13.460;2023-03-01T07:22:42;42.45;;;29.17;;
32501;SDS011;18952;52.516;13.460;2023-03-01T07:25:09;48.75;;;32.42;;
32501;SDS011;18952;52.516;13.460;2023-03-01T07:27:37;47.97;;;33.15;;
32501;SDS011;18952;52.516;13.460;2023-03-01T07:30:04;48.30;;;30.42;;
32501;SDS011;18952;52.516;13.460;2023-03-01T07:32:31;45.35;;;29.98;;
32501;SDS011;18952;52.516;13.460;2023-03-01T07:34:58;40.47;;;28.00;;
32501;SDS011;18952;52.516;13.460;2023-03-01T07:37:25;39.05;;;27.77;;
32501;SDS011;18952;52.516;13.460;2023-03-01T07:39:52;47.47;;;29.25;;
32501;SDS011;18952;52.516;13.460;2023-03-01T07:42:19;47.67;;;30.33;;
32501;SDS011;18952;52.516;13.460;2023-03-01T07:44:46;47.97;;;29.38;;
32501;SDS011;18952;52.516;13.460;2023-03-01T07:47:14;50.72;;;28.77;;
32501;SDS011;18952;52.516;13.460;2023-03-01T07:49:41;48.25;;;29.50;;
32501;SDS011;18952;52.516;13.460;2023-03-01T07:52:09;39.50;;;26.95;;
32501;SDS011;18952;52.516;13.460;2023-03-01T07:54:37;41.58;;;26.70;;
32501;SDS011;18952;52.516;13.460;2023-03-01T07:57:05;40.10;;;24.58;;
32501;SDS011;18952;52.516;13.460;2023-03-01T07:59:31;30.55;;;21.60;;
32501;SDS011;18952;52.516;13.460;2023-03-01T08:01:58;42.20;;;26.48;;
32501;SDS011;18952;52.516;13.460;2023-03-01T08:04:25;35.75;;;25.05;;
32501;SDS011;18952;52.516;13.460;2023-03-01T08:06:53;37.85;;;23.35;;
32501;SDS011;18952;52.516;13.460;2023-03-01T08:09:22;34.03;;;20.65;;
32501;SDS011;18952;52.516;13.460;2023-03-01T08:11:49;28.00;;;18.95;;
32501;SDS011;18952;52.516;13.460;2023-03-01T08:14:16;25.40;;;17.08;;
32501;SDS011;18952;52.516;13.460;2023-03-01T08:16:43;23.60;;;15.48;;
32501;SDS011;18952;52.516;13.460;2023-03-01T08:19:11;27.13;;;16.17;;
32501;SDS011;18952;52.516;13.460;2023-03-01T08:21:38;17.65;;;11.95;;
32501;SDS011;18952;52.516;13.460;2023-03-01T08:24:05;25.10;;;15.43;;
32501;SDS011;18952;52.516;13.460;2023-03-01T08:26:33;23.25;;;15.73;;
32501;SDS011;18952;52.516;13.460;2023-03-01T08:29:03;19.60;;;12.95;;
32501;SDS011;18952;52.516;13.460;2023-03-01T08:31:35;17.52;;;11.80;;
32501;SDS011;18952;52.516;13.460;2023-03-01T08:34:05;16.63;;;11.38;;
32501;SDS011;18952;52.516;13.460;2023-03-01T08:36:38;17.83;;;11.88;;
32501;SDS011;18952;52.516;13.460;2023-03-01T08:39:07;21.30;;;12.23;;
32501;SDS011;18952;52.516;13.460;2023-03-01T08:41:35;19.42;;;12.80;;
32501;SDS011;18952;52.516;13.460;2023-03-01T08:44:02;20.60;;;11.38;;
32501;SDS011;18952;52.516;13.460;2023-03-01T08:46:30;19.55;;;11.55;;
32501;SDS011;18952;52.516;13.460;2023-03-01T08:48:59;25.27;;;12.57;;
32501;SDS011;18952;52.516;13.460;2023-03-01T08:51:26;20.60;;;13.10;;
32501;SDS011;18952;52.516;13.460;2023-03-01T08:53:53;20.40;;;11.68;;
32501;SDS011;18952;52.516;13.460;2023-03-01T08:56:20;21.90;;;13.07;;
32501;SDS011;18952;52.516;13.460;2023-03-01T08:58:47;18.15;;;11.93;;
32501;SDS011;18952;52.516;13.460;2023-03-01T09:01:15;20.80;;;12.32;;
32501;SDS011;18952;52.516;13.460;2023-03-01T09:03:44;19.92;;;12.05;;
32501;SDS011;18952;52.516;13.460;2023-03-01T09:06:11;32.80;;;15.70;;
32501;SDS011;18952;52.516;13.460;2023-03-01T09:08:39;25.52;;;15.60;;
32501;SDS011;18952;52.516;13.460;2023-03-01T09:11:08;20.70;;;13.43;;
32501;SDS011;18952;52.516;13.460;2023-03-01T09:13:37;19.92;;;11.77;;
32501;SDS011;18952;52.516;13.460;2023-03-01T09:16:04;18.38;;;11.57;;
32501;SDS011;18952;52.516;13.460;2023-03-01T09:18:35;17.63;;;11.68;;
32501;SDS011;18952;52.516;13.460;2023-03-01T09:21:05;17.92;;;10.52;;
32501;SDS011;18952;52.516;13.460;2023-03-01T09:23:34;19.27;;;10.27;;
32501;SDS011;18952;52.516;13.460;2023-03-01T09:26:02;12.20;;;7.68;;
32501;SDS011;18952;52.516;13.460;2023-03-01T09:28:29;12.63;;;8.23;;
32501;SDS011;18952;52.516;13.460;2023-03-01T09:30:59;12.25;;;6.82;;
32501;SDS011;18952;52.516;13.460;2023-03-01T09:33:27;20.17;;;7.68;;
32501;SDS011;18952;52.516;13.460;2023-03-01T09:35:58;11.35;;;7.50;;
32501;SDS011;18952;52.516;13.460;2023-03-01T09:38:26;9.98;;;6.20;;
32501;SDS011;18952;52.516;13.460;2023-03-01T09:40:53;10.23;;;6.30;;
32501;SDS011;18952;52.516;13.460;2023-03-01T09:46:11;13.55;;;8.50;;
32501;SDS011;18952;52.516;13.460;2023-03-01T09:48:46;15.93;;;9.20;;
32501;SDS011;18952;52.516;13.460;2023-03-01T09:51:19;12.77;;;7.07;;
32501;SDS011;18952;52.516;13.460;2023-03-01T09:53:55;19.33;;;9.15;;
32501;SDS011;18952;52.516;13.460;2023-03-01T09:56:30;16.48;;;8.77;;
32501;SDS011;18952;52.516;13.460;2023-03-01T10:01:59;16.43;;;8.00;;
32501;SDS011;18952;52.516;13.460;2023-03-01T10:10:08;17.67;;;8.20;;
32501;SDS011;18952;52.516;13.460;2023-03-01T10:12:51;14.32;;;8.00;;
32501;SDS011;18952;52.516;13.460;2023-03-01T10:15:34;21.73;;;9.02;;
32501;SDS011;18952;52.516;13.460;2023-03-01T10:18:09;16.60;;;9.38;;
32501;SDS011;18952;52.516;13.460;2023-03-01T10:20:43;19.83;;;9.48;;
32501;SDS011;18952;52.516;13.460;2023-03-01T10:23:17;20.98;;;8.85;;
32501;SDS011;18952;52.516;13.460;2023-03-01T10:25:47;16.00;;;9.02;;
32501;SDS011;18952;52.516;13.460;2023-03-01T10:28:31;25.70;;;9.63;;
32501;SDS011;18952;52.516;13.460;2023-03-01T10:31:14;15.45;;;8.35;;
32501;SDS011;18952;52.516;13.460;2023-03-01T10:33:47;14.68;;;8.38;;
32501;SDS011;18952;52.516;13.460;2023-03-01T10:36:14;12.50;;;7.57;;
32501;SDS011;18952;52.516;13.460;2023-03-01T10:38:55;18.88;;;7.90;;
32501;SDS011;18952;52.516;13.460;2023-03-01T10:41:24;14.38;;;6.78;;
32501;SDS011;18952;52.516;13.460;2023-03-01T10:43:57;9.27;;;5.90;;
32501;SDS011;18952;52.516;13.460;2023-03-01T10:49:16;12.07;;;6.82;;
32501;SDS011;18952;52.516;13.460;2023-03-01T10:51:46;15.20;;;6.90;;
32501;SDS011;18952;52.516;13.460;2023-03-01T10:56:45;12.25;;;5.85;;
32501;SDS011;18952;52.516;13.460;2023-03-01T10:59:22;11.68;;;6.25;;
32501;SDS011;18952;52.516;13.460;2023-03-01T11:07:46;9.50;;;5.43;;
32501;SDS011;18952;52.516;13.460;2023-03-01T11:10:21;8.68;;;4.13;;
32501;SDS011;18952;52.516;13.460;2023-03-01T11:12:52;7.43;;;4.60;;
32501;SDS011;18952;52.516;13.460;2023-03-01T11:15:24;10.90;;;4.85;;
32501;SDS011;18952;52.516;13.460;2023-03-01T11:17:54;6.45;;;3.88;;
32501;SDS011;18952;52.516;13.460;2023-03-01T11:20:35;9.07;;;4.13;;
32501;SDS011;18952;52.516;13.460;2023-03-01T11:23:03;9.65;;;4.03;;
32501;SDS011;18952;52.516;13.460;2023-03-01T11:25:35;14.93;;;3.80;;
32501;SDS011;18952;52.516;13.460;2023-03-01T11:28:05;9.40;;;3.63;;
32501;SDS011;18952;52.516;13.460;2023-03-01T11:30:57;8.48;;;4.25;;
32501;SDS011;18952;52.516;13.460;2023-03-01T11:33:37;7.28;;;4.07;;
32501;SDS011;18952;52.516;13.460;2023-03-01T11:39:17;6.13;;;3.58;;
32501;SDS011;18952;52.516;13.460;2023-03-01T11:41:46;8.98;;;3.70;;
32501;SDS011;18952;52.516;13.460;2023-03-01T11:44:25;10.55;;;4.07;;
32501;SDS011;18952;52.516;13.460;2023-03-01T11:47:11;6.22;;;3.40;;
32501;SDS011;18952;52.516;13.460;2023-03-01T11:52:42;8.25;;;2.97;;
32501;SDS011;18952;52.516;13.460;2023-03-01T11:55:29;8.73;;;3.30;;
32501;SDS011;18952;52.516;13.460;2023-03-01T11:58:10;11.65;;;3.50;;
32501;SDS011;18952;52.516;13.460;2023-03-01T12:07:17;8.50;;;3.17;;
32501;SDS011;18952;52.516;13.460;2023-03-01T12:15:29;10.52;;;4.78;;
32501;SDS011;18952;52.516;13.460;2023-03-01T12:31:53;7.80;;;3.35;;
32501;SDS011;18952;52.516;13.460;2023-03-01T12:49:09;11.70;;;3.90;;
32501;SDS011;18952;52.516;13.460;2023-03-01T12:51:44;6.30;;;3.78;;
32501;SDS011;18952;52.516;13.460;2023-03-01T12:54:31;7.72;;;3.60;;
32501;SDS011;18952;52.516;13.460;2023-03-01T12:57:14;9.60;;;4.10;;
32501;SDS011;18952;52.516;13.460;2023-03-01T13:00:02;7.20;;;3.88;;
32501;SDS011;18952;52.516;13.460;2023-03-01T13:06:15;13.38;;;3.60;;
32501;SDS011;18952;52.516;13.460;2023-03-01T13:11:59;6.55;;;3.30;;
32501;SDS011;18952;52.516;13.460;2023-03-01T13:16:59;7.30;;;4.20;;
32501;SDS011;18952;52.516;13.460;2023-03-01T13:19:26;13.55;;;7.32;;
32501;SDS011;18952;52.516;13.460;2023-03-01T13:21:55;9.68;;;4.00;;
32501;SDS011;18952;52.516;13.460;2023-03-01T13:32:27;7.80;;;4.43;;
32501;SDS011;18952;52.516;13.460;2023-03-01T13:37:41;8.07;;;3.60;;
32501;SDS011;18952;52.516;13.460;2023-03-01T13:45:40;9.10;;;4.20;;
32501;SDS011;18952;52.516;13.460;2023-03-01T13:48:11;13.18;;;4.50;;
32501;SDS011;18952;52.516;13.460;2023-03-01T13:50:59;7.20;;;4.07;;
32501;SDS011;18952;52.516;13.460;2023-03-01T13:53:31;10.55;;;4.30;;
32501;SDS011;18952;52.516;13.460;2023-03-01T13:56:03;6.93;;;4.07;;
32501;SDS011;18952;52.516;13.460;2023-03-01T13:58:49;8.52;;;4.25;;
32501;SDS011;18952;52.516;13.460;2023-03-01T14:03:50;9.48;;;3.83;;
32501;SDS011;18952;52.516;13.460;2023-03-01T14:06:28;7.00;;;4.10;;
32501;SDS011;18952;52.516;13.460;2023-03-01T14:09:02;8.57;;;4.22;;
32501;SDS011;18952;52.516;13.460;2023-03-01T14:15:04;10.75;;;3.78;;
32501;SDS011;18952;52.516;13.460;2023-03-01T14:20:22;6.38;;;3.40;;
32501;SDS011;18952;52.516;13.460;2023-03-01T14:22:57;5.75;;;3.30;;
32501;SDS011;18952;52.516;13.460;2023-03-01T14:25:28;10.82;;;3.75;;
32501;SDS011;18952;52.516;13.460;2023-03-01T14:28:01;7.03;;;3.65;;
32501;SDS011;18952;52.516;13.460;2023-03-01T14:30:47;7.97;;;3.55;;
32501;SDS011;18952;52.516;13.460;2023-03-01T14:38:32;10.93;;;4.40;;
32501;SDS011;18952;52.516;13.460;2023-03-01T14:41:11;6.85;;;4.05;;
32501;SDS011;18952;52.516;13.460;2023-03-01T14:43:44;7.30;;;3.38;;
32501;SDS011;18952;52.516;13.460;2023-03-01T14:46:20;7.20;;;3.40;;
32501;SDS011;18952;52.516;13.460;2023-03-01T14:51:46;9.13;;;3.70;;
32501;SDS011;18952;52.516;13.460;2023-03-01T14:54:20;6.22;;;3.25;;
32501;SDS011;18952;52.516;13.460;2023-03-01T14:57:01;5.97;;;3.13;;
32501;SDS011;18952;52.516;13.460;2023-03-01T14:59:28;7.05;;;4.60;;
32501;SDS011;18952;52.516;13.460;2023-03-01T15:01:56;6.97;;;4.10;;
32501;SDS011;18952;52.516;13.460;2023-03-01T15:04:24;8.68;;;4.22;;
32501;SDS011;18952;52.516;13.460;2023-03-01T15:06:54;8.25;;;4.68;;
32501;SDS011;18952;52.516;13.460;2023-03-01T15:09:22;10.45;;;4.60;;
32501;SDS011;18952;52.516;13.460;2023-03-01T15:11:49;8.23;;;4.68;;
32501;SDS011;18952;52.516;13.460;2023-03-01T15:19:59;10.07;;;4.22;;
32501;SDS011;18952;52.516;13.460;2023-03-01T15:22:31;6.57;;;3.60;;
32501;SDS011;18952;52.516;13.460;2023-03-01T15:24:59;10.60;;;4.75;;
32501;SDS011;18952;52.516;13.460;2023-03-01T15:27:26;7.80;;;4.63;;
32501;SDS011;18952;52.516;13.460;2023-03-01T15:29:55;10.98;;;5.32;;
32501;SDS011;18952;52.516;13.460;2023-03-01T15:32:28;8.05;;;4.18;;
32501;SDS011;18952;52.516;13.460;2023-03-01T15:35:33;10.97;;;5.27;;
32501;SDS011;18952;52.516;13.460;2023-03-01T15:41:30;10.55;;;5.45;;
32501;SDS011;18952;52.516;13.460;2023-03-01T15:44:00;9.80;;;4.25;;
32501;SDS011;18952;52.516;13.460;2023-03-01T15:46:44;9.57;;;5.00;;
32501;SDS011;18952;52.516;13.460;2023-03-01T15:49:23;10.48;;;4.63;;
32501;SDS011;18952;52.516;13.460;2023-03-01T15:51:54;10.10;;;4.60;;
32501;SDS011;18952;52.516;13.460;2023-03-01T15:54:22;6.68;;;3.80;;
32501;SDS011;18952;52.516;13.460;2023-03-01T15:56:53;7.90;;;4.25;;
32501;SDS011;18952;52.516;13.460;2023-03-01T15:59:20;9.48;;;4.13;;
32501;SDS011;18952;52.516;13.460;2023-03-01T16:01:48;8.35;;;4.45;;
32501;SDS011;18952;52.516;13.460;2023-03-01T16:04:16;11.57;;;4.22;;
32501;SDS011;18952;52.516;13.460;2023-03-01T16:06:45;14.27;;;6.53;;
32501;SDS011;18952;52.516;13.460;2023-03-01T16:09:12;10.23;;;5.18;;
32501;SDS011;18952;52.516;13.460;2023-03-01T16:11:39;8.98;;;4.45;;
32501;SDS011;18952;52.516;13.460;2023-03-01T16:14:06;8.35;;;3.95;;
32501;SDS011;18952;52.516;13.460;2023-03-01T16:16:34;11.30;;;4.45;;
32501;SDS011;18952;52.516;13.460;2023-03-01T16:19:01;13.77;;;4.97;;
32501;SDS011;18952;52.516;13.460;2023-03-01T16:21:29;13.95;;;5.95;;
32501;SDS011;18952;52.516;13.460;2023-03-01T16:23:58;11.27;;;4.63;;
32501;SDS011;18952;52.516;13.460;2023-03-01T16:26:25;8.13;;;5.07;;
32501;SDS011;18952;52.516;13.460;2023-03-01T16:28:55;14.25;;;5.32;;
32501;SDS011;18952;52.516;13.460;2023-03-01T16:31:24;18.48;;;6.47;;
32501;SDS011;18952;52.516;13.460;2023-03-01T16:33:56;13.18;;;6.10;;
32501;SDS011;18952;52.516;13.460;2023-03-01T16:36:24;13.73;;;5.55;;
32501;SDS011;18952;52.516;13.460;2023-03-01T16:38:52;14.10;;;8.05;;
32501;SDS011;18952;52.516;13.460;2023-03-01T16:41:20;14.57;;;7.60;;
32501;SDS011;18952;52.516;13.460;2023-03-01T16:43:49;14.93;;;7.20;;
32501;SDS011;18952;52.516;13.460;2023-03-01T16:46:17;12.85;;;5.85;;